createdAt,value
2023-01-03T00:00:11.427Z,1011.58
2023-01-03T00:01:11.328Z,1011.58
2023-01-03T00:02:11.357Z,1011.58
2023-01-03T00:03:11.288Z,1011.60
2023-01-03T00:04:11.340Z,1011.59
2023-01-03T00:05:11.279Z,1011.61
2023-01-03T00:06:11.269Z,1011.61
2023-01-03T00:07:11.297Z,1011.59
2023-01-03T00:08:11.219Z,1011.61
2023-01-03T00:09:11.206Z,1011.64
2023-01-03T00:10:11.207Z,1011.66
2023-01-03T00:11:11.212Z,1011.67
2023-01-03T00:12:11.332Z,1011.65
2023-01-03T00:13:11.156Z,1011.65
2023-01-03T00:14:11.139Z,1011.66
2023-01-03T00:15:11.190Z,1011.62
2023-01-03T00:16:11.126Z,1011.61
2023-01-03T00:17:11.360Z,1011.64
2023-01-03T00:18:11.104Z,1011.64
2023-01-03T00:19:11.172Z,1011.64
2023-01-03T00:20:11.112Z,1011.66
2023-01-03T00:21:11.063Z,1011.64
2023-01-03T00:22:11.114Z,1011.64
2023-01-03T00:23:11.099Z,1011.65
2023-01-03T00:24:11.015Z,1011.60
2023-01-03T00:25:11.108Z,1011.62
2023-01-03T00:26:10.979Z,1011.61
2023-01-03T00:27:11.021Z,1011.64
2023-01-03T00:28:11.147Z,1011.61
2023-01-03T00:29:10.956Z,1011.63
2023-01-03T00:30:10.990Z,1011.63
2023-01-03T00:31:11.084Z,1011.65
2023-01-03T00:32:10.917Z,1011.66
2023-01-03T00:33:10.974Z,1011.67
2023-01-03T00:34:10.878Z,1011.68
2023-01-03T00:35:10.881Z,1011.70
2023-01-03T00:36:10.865Z,1011.65
2023-01-03T00:37:10.842Z,1011.69
2023-01-03T00:38:10.856Z,1011.66
2023-01-03T00:39:10.803Z,1011.64
2023-01-03T00:40:10.854Z,1011.67
2023-01-03T00:41:10.840Z,1011.67
2023-01-03T00:42:10.812Z,1011.68
2023-01-03T00:43:10.810Z,1011.73
2023-01-03T00:44:10.772Z,1011.70
2023-01-03T00:45:11.036Z,1011.72
2023-01-03T00:46:10.814Z,1011.67
2023-01-03T00:47:10.726Z,1011.70
2023-01-03T00:48:10.680Z,1011.65
2023-01-03T00:49:10.690Z,1011.65
2023-01-03T00:50:10.678Z,1011.72
2023-01-03T00:51:10.678Z,1011.73
2023-01-03T00:52:10.651Z,1011.72
2023-01-03T00:53:10.619Z,1011.70
2023-01-03T00:54:10.607Z,1011.67
2023-01-03T00:55:10.609Z,1011.67
2023-01-03T00:56:10.599Z,1011.68
2023-01-03T00:57:10.559Z,1011.73
2023-01-03T00:58:10.550Z,1011.73
2023-01-03T00:59:10.529Z,1011.75
2023-01-03T01:00:10.531Z,1011.76
2023-01-03T01:01:10.618Z,1011.80
2023-01-03T01:02:10.624Z,1011.81
2023-01-03T01:03:10.641Z,1011.85
2023-01-03T01:04:10.473Z,1011.84
2023-01-03T01:05:10.485Z,1011.87
2023-01-03T01:06:10.439Z,1011.89
2023-01-03T01:07:10.427Z,1011.89
2023-01-03T01:08:10.409Z,1011.89
2023-01-03T01:09:10.409Z,1011.90
2023-01-03T01:10:10.400Z,1011.89
2023-01-03T01:11:10.410Z,1011.87
2023-01-03T01:12:10.368Z,1011.88
2023-01-03T01:13:10.340Z,1011.90
2023-01-03T01:14:10.338Z,1011.91
2023-01-03T01:15:10.330Z,1011.93
2023-01-03T01:16:10.395Z,1011.93
2023-01-03T01:17:10.298Z,1011.98
2023-01-03T01:18:10.278Z,1012.02
2023-01-03T01:19:10.258Z,1012.03
2023-01-03T01:20:10.278Z,1012.02
2023-01-03T01:21:10.238Z,1012.04
2023-01-03T01:22:10.224Z,1012.04
2023-01-03T01:23:10.207Z,1012.10
2023-01-03T01:24:14.313Z,1012.08
2023-01-03T01:25:11.207Z,1012.11
2023-01-03T01:26:10.199Z,1012.16
2023-01-03T01:27:10.157Z,1012.16
2023-01-03T01:28:10.140Z,1012.13
2023-01-03T01:29:10.122Z,1012.15
2023-01-03T01:30:10.131Z,1012.20
2023-01-03T01:31:10.172Z,1012.26
2023-01-03T01:32:10.096Z,1012.25
2023-01-03T01:33:10.095Z,1012.28
2023-01-03T01:34:10.062Z,1012.26
2023-01-03T01:35:10.053Z,1012.32
2023-01-03T01:36:10.053Z,1012.30
2023-01-03T01:37:10.023Z,1012.28
2023-01-03T01:38:10.025Z,1012.31
2023-01-03T01:39:09.991Z,1012.28
2023-01-03T01:40:09.988Z,1012.30
2023-01-03T01:41:09.996Z,1012.33
2023-01-03T01:42:13.653Z,1012.28
2023-01-03T01:43:10.942Z,1012.31
2023-01-03T01:44:09.939Z,1012.30
2023-01-03T01:45:09.929Z,1012.28
2023-01-03T01:46:09.954Z,1012.27
2023-01-03T01:47:09.889Z,1012.28
2023-01-03T01:48:09.878Z,1012.30
2023-01-03T01:49:09.855Z,1012.32
2023-01-03T01:50:09.850Z,1012.31
2023-01-03T01:51:09.847Z,1012.30
2023-01-03T01:52:09.819Z,1012.32
2023-01-03T01:53:09.809Z,1012.36
2023-01-03T01:54:09.817Z,1012.35
2023-01-03T01:55:09.788Z,1012.33
2023-01-03T01:56:09.787Z,1012.34
2023-01-03T01:57:09.758Z,1012.33
2023-01-03T01:58:09.753Z,1012.33
2023-01-03T01:59:09.724Z,1012.31
2023-01-03T02:00:09.735Z,1012.34
2023-01-03T02:01:09.863Z,1012.37
2023-01-03T02:02:09.931Z,1012.38
2023-01-03T02:03:09.843Z,1012.32
2023-01-03T02:04:09.667Z,1012.40
2023-01-03T02:05:09.661Z,1012.37
2023-01-03T02:06:09.659Z,1012.38
2023-01-03T02:07:09.620Z,1012.38
2023-01-03T02:08:09.608Z,1012.38
2023-01-03T02:09:09.603Z,1012.32
2023-01-03T02:10:09.589Z,1012.38
2023-01-03T02:11:09.614Z,1012.42
2023-01-03T02:12:09.570Z,1012.44
2023-01-03T02:13:09.549Z,1012.44
2023-01-03T02:14:09.561Z,1012.45
2023-01-03T02:15:09.535Z,1012.47
2023-01-03T02:16:09.665Z,1012.44
2023-01-03T02:17:09.512Z,1012.48
2023-01-03T02:18:09.590Z,1012.51
2023-01-03T02:19:09.483Z,1012.49
2023-01-03T02:20:09.458Z,1012.49
2023-01-03T02:21:09.479Z,1012.49
2023-01-03T02:22:09.442Z,1012.52
2023-01-03T02:23:09.432Z,1012.52
2023-01-03T02:24:09.408Z,1012.52
2023-01-03T02:25:09.409Z,1012.55
2023-01-03T02:26:09.408Z,1012.56
2023-01-03T02:27:09.390Z,1012.55
2023-01-03T02:28:09.360Z,1012.53
2023-01-03T02:29:09.362Z,1012.54
2023-01-03T02:30:09.336Z,1012.56
2023-01-03T02:31:09.477Z,1012.57
2023-01-03T02:32:09.309Z,1012.58
2023-01-03T02:33:09.299Z,1012.56
2023-01-03T02:34:09.289Z,1012.57
2023-01-03T02:35:09.269Z,1012.55
2023-01-03T02:36:09.279Z,1012.56
2023-01-03T02:37:09.239Z,1012.58
2023-01-03T02:38:09.241Z,1012.57
2023-01-03T02:39:09.228Z,1012.58
2023-01-03T02:40:09.215Z,1012.58
2023-01-03T02:41:09.215Z,1012.61
2023-01-03T02:42:09.185Z,1012.58
2023-01-03T02:43:09.181Z,1012.58
2023-01-03T02:44:09.156Z,1012.60
2023-01-03T02:45:09.157Z,1012.59
2023-01-03T02:46:09.213Z,1012.63
2023-01-03T02:47:09.202Z,1012.64
2023-01-03T02:48:09.104Z,1012.62
2023-01-03T02:49:09.088Z,1012.61
2023-01-03T02:50:09.079Z,1012.63
2023-01-03T02:51:09.059Z,1012.66
2023-01-03T02:52:09.060Z,1012.62
2023-01-03T02:53:09.063Z,1012.60
2023-01-03T02:54:09.034Z,1012.61
2023-01-03T02:55:09.104Z,1012.60
2023-01-03T02:56:08.998Z,1012.60
2023-01-03T02:57:09.002Z,1012.59
2023-01-03T02:58:08.981Z,1012.61
2023-01-03T02:59:08.969Z,1012.62
2023-01-03T03:00:08.967Z,1012.62
2023-01-03T03:01:09.019Z,1012.62
2023-01-03T03:02:09.076Z,1012.65
2023-01-03T03:03:09.031Z,1012.66
2023-01-03T03:04:08.902Z,1012.65
2023-01-03T03:05:08.880Z,1012.66
2023-01-03T03:06:08.878Z,1012.66
2023-01-03T03:07:08.886Z,1012.64
2023-01-03T03:08:08.873Z,1012.64
2023-01-03T03:09:08.837Z,1012.63
2023-01-03T03:10:08.821Z,1012.63
2023-01-03T03:11:08.811Z,1012.63
2023-01-03T03:12:08.834Z,1012.66
2023-01-03T03:13:08.781Z,1012.71
2023-01-03T03:14:08.769Z,1012.67
2023-01-03T03:15:08.750Z,1012.69
2023-01-03T03:16:08.806Z,1012.69
2023-01-03T03:17:08.742Z,1012.67
2023-01-03T03:18:08.756Z,1012.71
2023-01-03T03:19:08.701Z,1012.70
2023-01-03T03:20:08.710Z,1012.69
2023-01-03T03:21:08.669Z,1012.68
2023-01-03T03:22:08.690Z,1012.71
2023-01-03T03:23:08.647Z,1012.73
2023-01-03T03:24:08.642Z,1012.74
2023-01-03T03:25:08.619Z,1012.68
2023-01-03T03:26:08.626Z,1012.72
2023-01-03T03:27:08.609Z,1012.71
2023-01-03T03:28:08.589Z,1012.70
2023-01-03T03:29:08.569Z,1012.71
2023-01-03T03:30:08.565Z,1012.70
2023-01-03T03:31:08.575Z,1012.74
2023-01-03T03:32:08.549Z,1012.73
2023-01-03T03:33:08.543Z,1012.67
2023-01-03T03:34:08.513Z,1012.65
2023-01-03T03:35:08.478Z,1012.71
2023-01-03T03:36:08.497Z,1012.67
2023-01-03T03:37:08.470Z,1012.63
2023-01-03T03:38:08.470Z,1012.61
2023-01-03T03:39:08.439Z,1012.58
2023-01-03T03:40:08.457Z,1012.63
2023-01-03T03:41:08.429Z,1012.61
2023-01-03T03:42:08.409Z,1012.65
2023-01-03T03:43:08.408Z,1012.65
2023-01-03T03:44:08.388Z,1012.63
2023-01-03T03:45:08.375Z,1012.63
2023-01-03T03:46:08.356Z,1012.67
2023-01-03T03:47:08.430Z,1012.62
2023-01-03T03:48:08.349Z,1012.64
2023-01-03T03:49:08.324Z,1012.65
2023-01-03T03:50:08.299Z,1012.65
2023-01-03T03:51:08.293Z,1012.64
2023-01-03T03:52:08.281Z,1012.65
2023-01-03T03:53:08.283Z,1012.64
2023-01-03T03:54:08.253Z,1012.64
2023-01-03T03:55:08.250Z,1012.60
2023-01-03T03:56:08.221Z,1012.60
2023-01-03T03:57:08.207Z,1012.60
2023-01-03T03:58:08.236Z,1012.61
2023-01-03T03:59:08.172Z,1012.58
2023-01-03T04:00:08.179Z,1012.61
2023-01-03T04:01:08.180Z,1012.61
2023-01-03T04:02:08.355Z,1012.60
2023-01-03T04:03:08.295Z,1012.59
2023-01-03T04:04:08.238Z,1012.65
2023-01-03T04:05:08.116Z,1012.62
2023-01-03T04:06:08.101Z,1012.66
2023-01-03T04:07:08.102Z,1012.67
2023-01-03T04:08:08.105Z,1012.67
2023-01-03T04:09:08.060Z,1012.66
2023-01-03T04:10:08.050Z,1012.68
2023-01-03T04:11:08.041Z,1012.71
2023-01-03T04:12:08.032Z,1012.72
2023-01-03T04:13:08.013Z,1012.73
2023-01-03T04:14:08.027Z,1012.72
2023-01-03T04:15:07.989Z,1012.77
2023-01-03T04:16:08.061Z,1012.75
2023-01-03T04:17:15.125Z,1012.74
2023-01-03T04:18:07.966Z,1012.78
2023-01-03T04:19:07.943Z,1012.74
2023-01-03T04:20:08.949Z,1012.79
2023-01-03T04:21:07.893Z,1012.82
2023-01-03T04:22:07.892Z,1012.78
2023-01-03T04:23:07.888Z,1012.83
2023-01-03T04:24:07.883Z,1012.84
2023-01-03T04:25:07.850Z,1012.87
2023-01-03T04:26:07.852Z,1012.88
2023-01-03T04:27:07.820Z,1012.86
2023-01-03T04:28:07.821Z,1012.84
2023-01-03T04:29:07.844Z,1012.86
2023-01-03T04:30:07.794Z,1012.83
2023-01-03T04:31:07.811Z,1012.85
2023-01-03T04:32:07.847Z,1012.85
2023-01-03T04:33:07.750Z,1012.87
2023-01-03T04:34:07.752Z,1012.87
2023-01-03T04:35:07.762Z,1012.82
2023-01-03T04:36:07.717Z,1012.88
2023-01-03T04:37:07.696Z,1012.87
2023-01-03T04:38:07.689Z,1012.84
2023-01-03T04:39:07.684Z,1012.89
2023-01-03T04:40:07.654Z,1012.90
2023-01-03T04:41:07.649Z,1012.90
2023-01-03T04:42:07.642Z,1012.88
2023-01-03T04:43:07.619Z,1012.91
2023-01-03T04:44:07.621Z,1012.91
2023-01-03T04:45:07.596Z,1012.93
2023-01-03T04:46:07.795Z,1012.89
2023-01-03T04:47:07.563Z,1012.94
2023-01-03T04:48:07.562Z,1012.93
2023-01-03T04:49:07.553Z,1012.90
2023-01-03T04:50:07.535Z,1012.89
2023-01-03T04:51:07.509Z,1012.92
2023-01-03T04:52:07.494Z,1012.88
2023-01-03T04:53:07.492Z,1012.88
2023-01-03T04:54:07.530Z,1012.89
2023-01-03T04:55:07.471Z,1012.86
2023-01-03T04:56:07.468Z,1012.89
2023-01-03T04:57:07.445Z,1012.88
2023-01-03T04:58:07.433Z,1012.90
2023-01-03T04:59:07.439Z,1012.89
2023-01-03T05:00:07.405Z,1012.86
2023-01-03T05:01:07.540Z,1012.93
2023-01-03T05:02:07.525Z,1012.90
2023-01-03T05:03:07.360Z,1012.91
2023-01-03T05:04:07.406Z,1012.87
2023-01-03T05:05:07.344Z,1012.88
2023-01-03T05:06:07.330Z,1012.88
2023-01-03T05:07:07.318Z,1012.90
2023-01-03T05:08:07.302Z,1012.89
2023-01-03T05:09:07.303Z,1012.90
2023-01-03T05:10:07.281Z,1012.93
2023-01-03T05:11:07.275Z,1012.94
2023-01-03T05:12:07.259Z,1012.92
2023-01-03T05:13:07.220Z,1012.90
2023-01-03T05:14:13.951Z,1012.93
2023-01-03T05:15:08.205Z,1012.92
2023-01-03T05:16:07.273Z,1012.89
2023-01-03T05:17:07.197Z,1012.96
2023-01-03T05:18:07.182Z,1012.90
2023-01-03T05:19:07.162Z,1012.90
2023-01-03T05:20:07.163Z,1012.91
2023-01-03T05:21:07.129Z,1012.91
2023-01-03T05:22:07.141Z,1012.91
2023-01-03T05:23:07.101Z,1012.93
2023-01-03T05:24:07.114Z,1012.93
2023-01-03T05:25:07.084Z,1012.89
2023-01-03T05:26:07.064Z,1012.94
2023-01-03T05:27:07.066Z,1012.89
2023-01-03T05:28:10.821Z,1012.93
2023-01-03T05:29:08.046Z,1012.96
2023-01-03T05:30:07.012Z,1013.01
2023-01-03T05:31:07.007Z,1012.98
2023-01-03T05:32:07.041Z,1012.95
2023-01-03T05:33:06.998Z,1012.96
2023-01-03T05:34:06.995Z,1012.96
2023-01-03T05:35:06.951Z,1012.94
2023-01-03T05:36:06.934Z,1013.00
2023-01-03T05:37:06.920Z,1012.98
2023-01-03T05:38:06.931Z,1013.03
2023-01-03T05:39:06.903Z,1013.04
2023-01-03T05:40:06.889Z,1013.01
2023-01-03T05:41:06.861Z,1013.04
2023-01-03T05:42:06.861Z,1013.03
2023-01-03T05:43:06.832Z,1013.05
2023-01-03T05:44:06.844Z,1013.04
2023-01-03T05:45:06.823Z,1013.07
2023-01-03T05:46:06.900Z,1013.04
2023-01-03T05:47:06.740Z,1012.99
2023-01-03T05:48:06.764Z,1013.01
2023-01-03T05:49:06.748Z,1012.99
2023-01-03T05:50:06.759Z,1013.00
2023-01-03T05:51:06.728Z,1013.00
2023-01-03T05:52:06.717Z,1013.01
2023-01-03T05:53:06.702Z,1013.03
2023-01-03T05:54:06.731Z,1013.05
2023-01-03T05:55:06.671Z,1013.10
2023-01-03T05:56:06.665Z,1013.09
2023-01-03T05:57:06.651Z,1013.07
2023-01-03T05:58:06.654Z,1013.11
2023-01-03T05:59:06.612Z,1013.10
2023-01-03T06:00:06.642Z,1013.12
2023-01-03T06:01:06.657Z,1013.12
2023-01-03T06:02:06.701Z,1013.13
2023-01-03T06:03:06.720Z,1013.13
2023-01-03T06:04:06.590Z,1013.11
2023-01-03T06:05:06.551Z,1013.13
2023-01-03T06:06:06.523Z,1013.16
2023-01-03T06:07:06.563Z,1013.20
2023-01-03T06:08:06.529Z,1013.21
2023-01-03T06:09:06.486Z,1013.23
2023-01-03T06:10:06.512Z,1013.22
2023-01-03T06:11:06.488Z,1013.23
2023-01-03T06:12:06.456Z,1013.26
2023-01-03T06:13:06.443Z,1013.25
2023-01-03T06:14:06.452Z,1013.19
2023-01-03T06:15:06.438Z,1013.18
2023-01-03T06:16:06.406Z,1013.21
2023-01-03T06:17:06.494Z,1013.18
2023-01-03T06:18:06.389Z,1013.23
2023-01-03T06:19:06.361Z,1013.19
2023-01-03T06:20:06.362Z,1013.21
2023-01-03T06:21:06.332Z,1013.21
2023-01-03T06:22:10.903Z,1013.20
2023-01-03T06:23:06.313Z,1013.20
2023-01-03T06:24:06.292Z,1013.19
2023-01-03T06:25:06.310Z,1013.15
2023-01-03T06:26:06.285Z,1013.18
2023-01-03T06:27:06.258Z,1013.23
2023-01-03T06:28:06.243Z,1013.23
2023-01-03T06:29:06.242Z,1013.22
2023-01-03T06:30:06.237Z,1013.21
2023-01-03T06:31:06.358Z,1013.23
2023-01-03T06:32:09.434Z,1013.26
2023-01-03T06:33:06.181Z,1013.26
2023-01-03T06:34:06.172Z,1013.29
2023-01-03T06:35:06.174Z,1013.29
2023-01-03T06:36:06.144Z,1013.28
2023-01-03T06:37:06.132Z,1013.30
2023-01-03T06:38:06.115Z,1013.28
2023-01-03T06:39:06.142Z,1013.30
2023-01-03T06:40:06.103Z,1013.31
2023-01-03T06:41:06.069Z,1013.26
2023-01-03T06:42:06.062Z,1013.27
2023-01-03T06:43:06.051Z,1013.26
2023-01-03T06:44:06.043Z,1013.22
2023-01-03T06:45:06.050Z,1013.22
2023-01-03T06:46:06.051Z,1013.21
2023-01-03T06:47:06.004Z,1013.29
2023-01-03T06:48:06.006Z,1013.29
2023-01-03T06:49:05.976Z,1013.33
2023-01-03T06:50:05.981Z,1013.35
2023-01-03T06:51:05.942Z,1013.36
2023-01-03T06:52:05.940Z,1013.39
2023-01-03T06:53:05.911Z,1013.39
2023-01-03T06:54:05.901Z,1013.44
2023-01-03T06:55:05.900Z,1013.43
2023-01-03T06:56:05.910Z,1013.43
2023-01-03T06:57:05.878Z,1013.45
2023-01-03T06:58:05.869Z,1013.44
2023-01-03T06:59:05.854Z,1013.56
2023-01-03T07:00:05.853Z,1013.56
2023-01-03T07:01:05.869Z,1013.55
2023-01-03T07:02:05.875Z,1013.57
2023-01-03T07:03:11.113Z,1013.53
2023-01-03T07:04:06.851Z,1013.55
2023-01-03T07:05:05.765Z,1013.56
2023-01-03T07:06:05.784Z,1013.59
2023-01-03T07:07:05.742Z,1013.61
2023-01-03T07:08:05.735Z,1013.62
2023-01-03T07:09:05.722Z,1013.65
2023-01-03T07:10:05.702Z,1013.69
2023-01-03T07:11:05.707Z,1013.69
2023-01-03T07:12:05.682Z,1013.70
2023-01-03T07:13:05.663Z,1013.75
2023-01-03T07:14:05.655Z,1013.74
2023-01-03T07:15:05.650Z,1013.76
2023-01-03T07:16:05.717Z,1013.76
2023-01-03T07:17:05.639Z,1013.82
2023-01-03T07:18:05.601Z,1013.83
2023-01-03T07:19:05.605Z,1013.87
2023-01-03T07:20:05.577Z,1013.90
2023-01-03T07:21:05.571Z,1013.90
2023-01-03T07:22:05.542Z,1013.94
2023-01-03T07:23:05.542Z,1013.97
2023-01-03T07:24:05.522Z,1014.00
2023-01-03T07:25:05.541Z,1014.01
2023-01-03T07:26:05.511Z,1014.04
2023-01-03T07:27:05.481Z,1014.04
2023-01-03T07:28:08.055Z,1014.01
2023-01-03T07:29:05.451Z,1014.01
2023-01-03T07:30:05.441Z,1013.99
2023-01-03T07:31:05.485Z,1014.04
2023-01-03T07:32:05.431Z,1014.07
2023-01-03T07:33:05.412Z,1014.06
2023-01-03T07:34:05.392Z,1014.07
2023-01-03T07:35:05.385Z,1014.05
2023-01-03T07:36:11.213Z,1014.02
2023-01-03T07:37:06.354Z,1014.03
2023-01-03T07:38:05.380Z,1014.05
2023-01-03T07:39:05.320Z,1014.04
2023-01-03T07:40:05.301Z,1014.03
2023-01-03T07:41:05.299Z,1014.09
2023-01-03T07:42:05.303Z,1014.10
2023-01-03T07:43:05.270Z,1014.09
2023-01-03T07:44:05.251Z,1014.10
2023-01-03T07:45:05.306Z,1014.05
2023-01-03T07:46:05.249Z,1014.10
2023-01-03T07:47:05.242Z,1014.07
2023-01-03T07:48:05.212Z,1014.14
2023-01-03T07:49:11.195Z,1014.09
2023-01-03T07:50:06.182Z,1014.13
2023-01-03T07:51:05.175Z,1014.12
2023-01-03T07:52:05.186Z,1014.13
2023-01-03T07:53:05.153Z,1014.18
2023-01-03T07:54:05.132Z,1014.19
2023-01-03T07:55:05.131Z,1014.20
2023-01-03T07:56:10.761Z,1014.21
2023-01-03T07:57:06.099Z,1014.29
2023-01-03T07:58:05.093Z,1014.29
2023-01-03T07:59:05.067Z,1014.27
2023-01-03T08:00:05.054Z,1014.31
2023-01-03T08:01:05.051Z,1014.35
2023-01-03T08:02:05.163Z,1014.36
2023-01-03T08:03:10.420Z,1014.33
2023-01-03T08:04:06.003Z,1014.31
2023-01-03T08:05:05.037Z,1014.35
2023-01-03T08:06:04.981Z,1014.39
2023-01-03T08:07:04.983Z,1014.39
2023-01-03T08:08:04.931Z,1014.42
2023-01-03T08:09:06.370Z,1014.41
2023-01-03T08:10:05.071Z,1014.41
2023-01-03T08:11:04.923Z,1014.44
2023-01-03T08:12:04.933Z,1014.45
2023-01-03T08:13:04.886Z,1014.44
2023-01-03T08:14:04.850Z,1014.43
2023-01-03T08:15:04.880Z,1014.46
2023-01-03T08:16:04.894Z,1014.45
2023-01-03T08:17:04.861Z,1014.45
2023-01-03T08:18:04.805Z,1014.43
2023-01-03T08:19:04.821Z,1014.49
2023-01-03T08:20:04.804Z,1014.46
2023-01-03T08:21:04.789Z,1014.51
2023-01-03T08:22:04.790Z,1014.51
2023-01-03T08:23:04.761Z,1014.55
2023-01-03T08:24:04.741Z,1014.51
2023-01-03T08:25:04.733Z,1014.50
2023-01-03T08:26:04.722Z,1014.50
2023-01-03T08:27:04.720Z,1014.50
2023-01-03T08:28:04.679Z,1014.46
2023-01-03T08:29:04.692Z,1014.45
2023-01-03T08:30:04.671Z,1014.45
2023-01-03T08:31:04.710Z,1014.45
2023-01-03T08:32:04.663Z,1014.45
2023-01-03T08:33:04.633Z,1014.47
2023-01-03T08:34:08.819Z,1014.43
2023-01-03T08:35:05.611Z,1014.46
2023-01-03T08:36:04.590Z,1014.50
2023-01-03T08:37:04.600Z,1014.45
2023-01-03T08:38:04.564Z,1014.42
2023-01-03T08:39:04.550Z,1014.41
2023-01-03T08:40:04.544Z,1014.41
2023-01-03T08:41:04.550Z,1014.42
2023-01-03T08:42:04.530Z,1014.46
2023-01-03T08:43:04.501Z,1014.41
2023-01-03T08:44:04.510Z,1014.44
2023-01-03T08:45:04.499Z,1014.50
2023-01-03T08:46:04.449Z,1014.45
2023-01-03T08:47:06.071Z,1014.42
2023-01-03T08:48:04.452Z,1014.46
2023-01-03T08:49:04.430Z,1014.48
2023-01-03T08:50:04.459Z,1014.50
2023-01-03T08:51:04.407Z,1014.53
2023-01-03T08:52:04.529Z,1014.51
2023-01-03T08:53:04.393Z,1014.54
2023-01-03T08:54:04.368Z,1014.54
2023-01-03T08:55:04.356Z,1014.56
2023-01-03T08:56:04.343Z,1014.54
2023-01-03T08:57:04.335Z,1014.53
2023-01-03T08:58:04.320Z,1014.54
2023-01-03T08:59:04.288Z,1014.52
2023-01-03T09:00:04.279Z,1014.56
2023-01-03T09:01:04.268Z,1014.59
2023-01-03T09:02:04.538Z,1014.57
2023-01-03T09:03:04.498Z,1014.57
2023-01-03T09:04:04.337Z,1014.59
2023-01-03T09:05:04.233Z,1014.57
2023-01-03T09:06:04.201Z,1014.58
2023-01-03T09:07:04.204Z,1014.56
2023-01-03T09:08:04.207Z,1014.59
2023-01-03T09:09:04.168Z,1014.59
2023-01-03T09:10:04.158Z,1014.65
2023-01-03T09:11:04.149Z,1014.67
2023-01-03T09:12:04.138Z,1014.68
2023-01-03T09:13:04.138Z,1014.63
2023-01-03T09:14:04.099Z,1014.69
2023-01-03T09:15:04.092Z,1014.68
2023-01-03T09:16:04.142Z,1014.72
2023-01-03T09:17:04.059Z,1014.70
2023-01-03T09:18:04.083Z,1014.72
2023-01-03T09:19:04.041Z,1014.75
2023-01-03T09:20:04.029Z,1014.69
2023-01-03T09:21:04.010Z,1014.74
2023-01-03T09:22:04.000Z,1014.70
2023-01-03T09:23:04.001Z,1014.71
2023-01-03T09:24:03.998Z,1014.68
2023-01-03T09:25:03.960Z,1014.68
2023-01-03T09:26:03.948Z,1014.65
2023-01-03T09:27:03.942Z,1014.62
2023-01-03T09:28:03.939Z,1014.65
2023-01-03T09:29:03.910Z,1014.65
2023-01-03T09:30:03.891Z,1014.67
2023-01-03T09:31:03.962Z,1014.69
2023-01-03T09:32:04.003Z,1014.66
2023-01-03T09:33:03.870Z,1014.71
2023-01-03T09:34:03.845Z,1014.73
2023-01-03T09:35:03.829Z,1014.72
2023-01-03T09:36:03.809Z,1014.76
2023-01-03T09:37:03.804Z,1014.73
2023-01-03T09:38:03.831Z,1014.73
2023-01-03T09:39:03.789Z,1014.68
2023-01-03T09:40:03.757Z,1014.71
2023-01-03T09:41:03.760Z,1014.70
2023-01-03T09:42:03.739Z,1014.70
2023-01-03T09:43:03.757Z,1014.68
2023-01-03T09:44:03.706Z,1014.69
2023-01-03T09:45:03.717Z,1014.70
2023-01-03T09:46:03.677Z,1014.71
2023-01-03T09:47:03.922Z,1014.68
2023-01-03T09:48:03.677Z,1014.68
2023-01-03T09:49:03.638Z,1014.69
2023-01-03T09:50:31.770Z,1014.69
2023-01-03T09:51:25.829Z,1014.74
2023-01-03T09:52:04.597Z,1014.71
2023-01-03T09:53:03.588Z,1014.70
2023-01-03T09:54:03.587Z,1014.69
2023-01-03T09:55:03.560Z,1014.66
2023-01-03T09:56:03.556Z,1014.68
2023-01-03T09:57:03.530Z,1014.68
2023-01-03T09:58:03.527Z,1014.66
2023-01-03T09:59:03.538Z,1014.67
2023-01-03T10:00:03.524Z,1014.68
2023-01-03T10:01:03.538Z,1014.68
2023-01-03T10:02:03.656Z,1014.69
2023-01-03T10:03:03.516Z,1014.69
2023-01-03T10:04:03.475Z,1014.69
2023-01-03T10:05:03.428Z,1014.70
2023-01-03T10:06:03.423Z,1014.71
2023-01-03T10:07:03.398Z,1014.69
2023-01-03T10:08:03.393Z,1014.70
2023-01-03T10:09:03.390Z,1014.73
2023-01-03T10:10:03.364Z,1014.72
2023-01-03T10:11:03.349Z,1014.72
2023-01-03T10:12:03.330Z,1014.72
2023-01-03T10:13:03.326Z,1014.69
2023-01-03T10:14:03.344Z,1014.68
2023-01-03T10:15:03.321Z,1014.64
2023-01-03T10:16:03.267Z,1014.66
2023-01-03T10:17:03.304Z,1014.67
2023-01-03T10:18:03.307Z,1014.64
2023-01-03T10:19:03.258Z,1014.67
2023-01-03T10:20:03.234Z,1014.65
2023-01-03T10:21:10.448Z,1014.68
2023-01-03T10:22:03.205Z,1014.67
2023-01-03T10:23:03.203Z,1014.63
2023-01-03T10:24:03.196Z,1014.60
2023-01-03T10:25:03.165Z,1014.60
2023-01-03T10:26:03.145Z,1014.58
2023-01-03T10:27:03.144Z,1014.62
2023-01-03T10:28:03.152Z,1014.57
2023-01-03T10:29:03.118Z,1014.56
2023-01-03T10:30:03.203Z,1014.54
2023-01-03T10:31:07.753Z,1014.55
2023-01-03T10:32:04.110Z,1014.57
2023-01-03T10:33:03.046Z,1014.55
2023-01-03T10:34:03.045Z,1014.51
2023-01-03T10:35:03.201Z,1014.50
2023-01-03T10:36:03.024Z,1014.52
2023-01-03T10:37:03.006Z,1014.50
2023-01-03T10:38:03.037Z,1014.48
2023-01-03T10:39:02.977Z,1014.40
2023-01-03T10:40:02.990Z,1014.40
2023-01-03T10:41:02.964Z,1014.39
2023-01-03T10:42:02.925Z,1014.36
2023-01-03T10:43:02.915Z,1014.34
2023-01-03T10:44:02.907Z,1014.34
2023-01-03T10:45:03.020Z,1014.34
2023-01-03T10:46:02.910Z,1014.33
2023-01-03T10:47:02.863Z,1014.33
2023-01-03T10:48:02.847Z,1014.35
2023-01-03T10:49:31.451Z,1014.33
2023-01-03T10:50:03.813Z,1014.34
2023-01-03T10:51:02.806Z,1014.31
2023-01-03T10:52:02.845Z,1014.30
2023-01-03T10:53:02.773Z,1014.32
2023-01-03T10:54:02.767Z,1014.24
2023-01-03T10:55:02.752Z,1014.25
2023-01-03T10:56:02.744Z,1014.25
2023-01-03T10:57:02.716Z,1014.21
2023-01-03T10:58:02.705Z,1014.17
2023-01-03T10:59:02.693Z,1014.16
2023-01-03T11:00:02.722Z,1014.17
2023-01-03T11:01:02.727Z,1014.11
2023-01-03T11:02:03.099Z,1014.08
2023-01-03T11:03:02.817Z,1014.10
2023-01-03T11:04:02.726Z,1014.10
2023-01-03T11:05:02.602Z,1014.07
2023-01-03T11:06:02.619Z,1014.08
2023-01-03T11:07:02.586Z,1014.10
2023-01-03T11:08:02.578Z,1014.05
2023-01-03T11:09:02.591Z,1014.05
2023-01-03T11:10:02.577Z,1014.00
2023-01-03T11:11:02.531Z,1014.00
2023-01-03T11:12:02.535Z,1013.98
2023-01-03T11:13:02.513Z,1013.97
2023-01-03T11:14:02.491Z,1013.99
2023-01-03T11:15:02.471Z,1014.00
2023-01-03T11:16:02.590Z,1013.93
2023-01-03T11:17:02.537Z,1013.98
2023-01-03T11:18:02.455Z,1013.93
2023-01-03T11:19:02.431Z,1013.95
2023-01-03T11:20:02.411Z,1013.95
2023-01-03T11:21:02.404Z,1013.95
2023-01-03T11:22:02.405Z,1013.96
2023-01-03T11:23:02.385Z,1013.96
2023-01-03T11:24:02.415Z,1013.96
2023-01-03T11:25:02.368Z,1013.95
2023-01-03T11:26:02.356Z,1013.95
2023-01-03T11:27:02.318Z,1013.89
2023-01-03T11:28:02.339Z,1013.90
2023-01-03T11:29:02.288Z,1013.92
2023-01-03T11:30:02.286Z,1013.91
2023-01-03T11:31:02.297Z,1013.88
2023-01-03T11:32:02.349Z,1013.86
2023-01-03T11:33:02.279Z,1013.90
2023-01-03T11:34:02.265Z,1013.90
2023-01-03T11:36:03.210Z,1013.93
2023-01-03T11:37:02.205Z,1013.92
2023-01-03T11:38:02.279Z,1013.94
2023-01-03T11:39:02.227Z,1013.95
2023-01-03T11:40:02.146Z,1013.97
2023-01-03T11:41:02.144Z,1013.94
2023-01-03T11:42:02.153Z,1013.98
2023-01-03T11:43:02.108Z,1014.00
2023-01-03T11:44:02.121Z,1014.00
2023-01-03T11:45:02.078Z,1013.95
2023-01-03T11:46:02.099Z,1014.04
2023-01-03T11:47:02.058Z,1014.03
2023-01-03T11:48:02.084Z,1013.97
2023-01-03T11:49:02.027Z,1013.96
2023-01-03T11:50:02.028Z,1013.92
2023-01-03T11:51:01.996Z,1013.89
2023-01-03T11:52:01.989Z,1013.86
2023-01-03T11:53:01.996Z,1013.90
2023-01-03T11:54:01.974Z,1013.91
2023-01-03T11:55:01.948Z,1013.88
2023-01-03T11:56:01.950Z,1013.87
2023-01-03T11:57:01.917Z,1013.85
2023-01-03T11:58:01.936Z,1013.85
2023-01-03T11:59:01.894Z,1013.81
2023-01-03T12:00:01.951Z,1013.83
2023-01-03T12:01:01.865Z,1013.81
2023-01-03T12:02:01.999Z,1013.75
2023-01-03T12:03:01.913Z,1013.76
2023-01-03T12:04:01.904Z,1013.79
2023-01-03T12:05:01.819Z,1013.78
2023-01-03T12:06:01.804Z,1013.78